createdAt,value
2023-05-11T00:01:37.008Z,0.0007
2023-05-11T00:11:36.421Z,0.0007
2023-05-11T00:21:35.413Z,0.0007
2023-05-11T00:31:35.575Z,0.0007
2023-05-11T00:41:36.298Z,0.0007
2023-05-11T00:51:35.565Z,0.0007
2023-05-11T01:01:35.447Z,0.0007
2023-05-11T01:11:35.735Z,0.0007
2023-05-11T01:21:36.071Z,0.0007
2023-05-11T01:31:35.674Z,0.0007
2023-05-11T01:41:36.159Z,0.0007
2023-05-11T01:51:35.529Z,0.0007
2023-05-11T02:01:35.562Z,0.0007
2023-05-11T02:11:35.734Z,0.0008
2023-05-11T02:21:35.573Z,0.0013
2023-05-11T02:31:36.841Z,0.0020
2023-05-11T02:41:36.012Z,0.0027
2023-05-11T02:51:35.533Z,0.0035
2023-05-11T03:01:35.580Z,0.0079
2023-05-11T03:11:35.457Z,0.0251
2023-05-11T03:21:35.520Z,0.0511
2023-05-11T03:31:35.444Z,0.0979
2023-05-11T03:41:35.377Z,0.1646
2023-05-11T03:51:35.722Z,0.2367
2023-05-11T04:01:35.452Z,0.3108
2023-05-11T04:11:35.503Z,0.3869
2023-05-11T04:21:35.860Z,0.4644
2023-05-11T04:31:35.542Z,0.5437
2023-05-11T04:41:35.473Z,0.6244
2023-05-11T04:51:35.475Z,0.7065
2023-05-11T05:01:35.477Z,0.7897
2023-05-11T05:11:35.636Z,0.8732
2023-05-11T05:21:35.469Z,0.9568
2023-05-11T05:31:35.587Z,1.0405
2023-05-11T05:41:35.598Z,1.1242
2023-05-11T05:51:35.537Z,1.2081
2023-05-11T06:01:36.020Z,1.2919
2023-05-11T06:11:35.807Z,1.3758
2023-05-11T06:21:35.615Z,1.4597
2023-05-11T06:31:36.072Z,1.5438
2023-05-11T06:41:35.913Z,1.6281
2023-05-11T06:51:35.937Z,1.7125
2023-05-11T07:01:35.608Z,1.7968
2023-05-11T07:11:36.145Z,1.8811
2023-05-11T07:21:36.551Z,1.9654
2023-05-11T07:31:35.445Z,2.0497
2023-05-11T07:41:35.561Z,2.1340
2023-05-11T07:51:35.688Z,2.2183
2023-05-11T08:01:35.727Z,2.3026
2023-05-11T08:11:35.893Z,2.3869
2023-05-11T08:21:35.631Z,2.4712
2023-05-11T08:31:35.554Z,2.5555
2023-05-11T08:41:35.546Z,2.6398
2023-05-11T08:51:35.625Z,2.7241
2023-05-11T09:01:35.620Z,2.8084
2023-05-11T09:11:36.738Z,2.8927
2023-05-11T09:21:35.594Z,2.9770
2023-05-11T09:31:35.523Z,3.0613
2023-05-11T09:41:35.980Z,3.1456
2023-05-11T09:51:35.645Z,3.2300
2023-05-11T10:01:35.836Z,3.3143
2023-05-11T10:11:36.619Z,3.3986
2023-05-11T10:21:35.656Z,3.4829
2023-05-11T10:31:35.638Z,3.5672
2023-05-11T10:41:35.559Z,3.6515
2023-05-11T10:51:35.613Z,3.7358
2023-05-11T11:01:35.570Z,3.8201
2023-05-11T11:11:35.658Z,3.9044
2023-05-11T11:21:35.866Z,3.9887
2023-05-11T11:31:35.802Z,4.0730
2023-05-11T11:41:35.646Z,4.1573
2023-05-11T11:51:35.617Z,4.2416
2023-05-11T12:01:35.564Z,4.3259
2023-05-11T12:11:35.724Z,4.4102
2023-05-11T12:21:35.602Z,4.4945
2023-05-11T12:31:35.615Z,4.5788
2023-05-11T12:41:35.486Z,4.6631
2023-05-11T12:51:35.668Z,4.7475
2023-05-11T13:01:35.816Z,4.8318
2023-05-11T13:11:35.552Z,4.9161
2023-05-11T13:21:35.594Z,5.0004
2023-05-11T13:31:35.708Z,5.0847
2023-05-11T13:41:35.566Z,5.1690
2023-05-11T13:51:35.705Z,5.2540
2023-05-11T14:01:35.814Z,5.3464
2023-05-11T14:11:37.982Z,5.4447
2023-05-11T14:21:35.575Z,5.5570
2023-05-11T14:31:36.003Z,5.6790
2023-05-11T14:41:35.589Z,5.8056
2023-05-11T14:51:38.108Z,5.9362
2023-05-11T15:01:35.641Z,6.0688
2023-05-11T15:11:35.645Z,6.2028
2023-05-11T15:21:35.641Z,6.3392
2023-05-11T15:31:35.510Z,6.4766
2023-05-11T15:41:35.572Z,6.6145
2023-05-11T15:51:35.539Z,6.7526
2023-05-11T16:01:35.630Z,6.8908
2023-05-11T16:11:35.732Z,7.0291
2023-05-11T16:21:35.523Z,7.1675
2023-05-11T16:31:35.639Z,7.3058
2023-05-11T16:41:35.586Z,7.4442
2023-05-11T16:51:36.349Z,7.5827
2023-05-11T17:01:35.642Z,7.7211
2023-05-11T17:11:35.578Z,7.8596
2023-05-11T17:21:35.658Z,7.9981
2023-05-11T17:31:35.804Z,8.1365
2023-05-11T17:41:35.975Z,8.2750
2023-05-11T17:51:35.605Z,8.4135
2023-05-11T18:01:35.570Z,8.5520
2023-05-11T18:11:35.838Z,8.6904
2023-05-11T18:21:35.648Z,8.8289
2023-05-11T18:31:35.687Z,8.9675
2023-05-11T18:41:35.584Z,9.1061
2023-05-11T18:51:35.574Z,9.2450
2023-05-11T19:01:47.214Z,9.3842
2023-05-11T19:11:35.832Z,9.5235
2023-05-11T19:21:36.023Z,9.6628
2023-05-11T19:31:35.667Z,9.8021
2023-05-11T19:41:35.654Z,9.9415
2023-05-11T19:51:36.472Z,10.0810
2023-05-11T20:01:36.370Z,10.2204
2023-05-11T20:11:35.584Z,10.3600
2023-05-11T20:21:35.896Z,10.4996
2023-05-11T20:31:35.582Z,10.6394
2023-05-11T20:41:35.707Z,10.7791
2023-05-11T20:51:37.808Z,10.9188
2023-05-11T21:01:35.721Z,11.0585
2023-05-11T21:11:35.625Z,11.1983
2023-05-11T21:21:35.873Z,11.3380
2023-05-11T21:31:35.607Z,11.4777
2023-05-11T21:41:35.803Z,11.6174
2023-05-11T21:51:35.900Z,11.7571
2023-05-11T22:01:36.172Z,0.0056
2023-05-11T22:11:35.700Z,0.0056
2023-05-11T22:21:35.945Z,0.0056
2023-05-11T22:31:35.742Z,0.0056
2023-05-11T22:41:36.803Z,0.0056
2023-05-11T22:51:35.642Z,0.0056
2023-05-11T23:01:36.371Z,0.0056
2023-05-11T23:11:37.502Z,0.0057
2023-05-11T23:21:38.737Z,0.0059
2023-05-11T23:31:39.249Z,0.0076
2023-05-11T23:41:40.206Z,0.0120
2023-05-11T23:51:39.192Z,0.0191
